createdAt,value
2019-05-02T00:00:45.514Z,0
2019-05-02T00:01:45.574Z,0
2019-05-02T00:02:45.642Z,0
2019-05-02T00:03:45.697Z,0
2019-05-02T00:04:45.727Z,0
2019-05-02T00:05:46.951Z,0
2019-05-02T00:06:45.860Z,0
2019-05-02T00:07:46.067Z,0
2019-05-02T00:08:46.992Z,0
2019-05-02T00:09:48.262Z,0
2019-05-02T00:10:46.143Z,0
2019-05-02T00:11:58.122Z,0
2019-05-02T00:12:47.287Z,0
2019-05-02T00:13:46.358Z,0
2019-05-02T00:14:46.455Z,0
2019-05-02T00:15:47.558Z,0
2019-05-02T00:16:49.239Z,0
2019-05-02T00:17:46.711Z,0
2019-05-02T00:18:47.762Z,0
2019-05-02T00:19:49.774Z,0
2019-05-02T00:20:46.914Z,0
2019-05-02T00:21:47.993Z,0
2019-05-02T00:22:47.895Z,0
2019-05-02T00:23:47.098Z,0
2019-05-02T00:24:47.193Z,0
2019-05-02T00:25:52.293Z,0
2019-05-02T00:26:47.311Z,0
2019-05-02T00:27:48.380Z,0
2019-05-02T00:28:48.231Z,0
2019-05-02T00:29:47.509Z,0
2019-05-02T00:30:48.592Z,0
2019-05-02T00:31:48.819Z,0
2019-05-02T00:32:47.706Z,0
2019-05-02T00:33:48.767Z,0
2019-05-02T00:34:47.882Z,0
2019-05-02T00:35:47.941Z,0
2019-05-02T00:36:48.066Z,0
2019-05-02T00:37:48.152Z,0
2019-05-02T00:38:48.236Z,0
2019-05-02T00:39:49.127Z,0
2019-05-02T00:40:48.328Z,0
2019-05-02T00:41:48.417Z,0
2019-05-02T00:42:48.502Z,0
2019-05-02T00:43:48.568Z,0
2019-05-02T00:44:48.615Z,0
2019-05-02T00:45:48.689Z,0
2019-05-02T00:46:48.778Z,0
2019-05-02T00:47:49.783Z,0
2019-05-02T00:48:48.890Z,0
2019-05-02T00:49:48.964Z,0
2019-05-02T00:50:50.618Z,0
2019-05-02T00:51:49.118Z,0
2019-05-02T00:52:49.176Z,0
2019-05-02T00:53:49.535Z,0
2019-05-02T00:54:49.314Z,0
2019-05-02T00:55:49.370Z,0
2019-05-02T00:56:49.448Z,0
2019-05-02T00:57:50.828Z,0
2019-05-02T00:58:49.558Z,0
2019-05-02T00:59:49.636Z,0
2019-05-02T01:00:53.101Z,0
2019-05-02T01:01:49.739Z,0
2019-05-02T01:02:49.870Z,0
2019-05-02T01:03:51.964Z,0
2019-05-02T01:04:49.956Z,0
2019-05-02T01:05:50.040Z,0
2019-05-02T01:06:50.801Z,0
2019-05-02T01:07:50.181Z,0
2019-05-02T01:08:50.287Z,0
2019-05-02T01:09:50.367Z,0
2019-05-02T01:10:52.037Z,0
2019-05-02T01:11:50.527Z,0
2019-05-02T01:12:50.621Z,0
2019-05-02T01:13:55.580Z,0
2019-05-02T01:14:50.739Z,0
2019-05-02T01:15:50.801Z,0
2019-05-02T01:16:54.264Z,0
2019-05-02T01:17:50.969Z,0
2019-05-02T01:18:51.049Z,0
2019-05-02T01:19:51.631Z,0
2019-05-02T01:20:51.165Z,0
2019-05-02T01:21:51.264Z,0
2019-05-02T01:22:52.183Z,0
2019-05-02T01:23:51.390Z,0
2019-05-02T01:24:51.450Z,0
2019-05-02T01:25:52.653Z,0
2019-05-02T01:26:52.545Z,0
2019-05-02T01:27:51.822Z,0
2019-05-02T01:28:54.166Z,0
2019-05-02T01:29:51.781Z,0
2019-05-02T01:30:51.851Z,0
2019-05-02T01:31:54.612Z,0
2019-05-02T01:32:51.989Z,0
2019-05-02T01:33:52.132Z,0
2019-05-02T01:34:54.299Z,0
2019-05-02T01:35:52.241Z,0
2019-05-02T01:36:52.356Z,0
2019-05-02T01:37:54.794Z,0
2019-05-02T01:38:52.496Z,0
2019-05-02T01:39:52.577Z,0
2019-05-02T01:40:54.497Z,0
2019-05-02T01:41:52.724Z,0
2019-05-02T01:42:52.788Z,0
2019-05-02T01:43:54.822Z,0
2019-05-02T01:44:52.921Z,0
2019-05-02T01:45:52.967Z,0
2019-05-02T01:46:53.944Z,0
2019-05-02T01:47:53.112Z,0
2019-05-02T01:48:53.176Z,0
2019-05-02T01:49:57.086Z,0
2019-05-02T01:50:53.334Z,0
2019-05-02T01:51:53.406Z,0
2019-05-02T01:52:53.630Z,0
2019-05-02T01:53:53.524Z,0
2019-05-02T01:54:53.638Z,0
2019-05-02T01:55:57.241Z,0
2019-05-02T01:56:53.734Z,0
2019-05-02T01:57:53.810Z,0
2019-05-02T01:58:57.649Z,0
2019-05-02T01:59:54.003Z,0
2019-05-02T02:00:53.961Z,0
2019-05-02T02:01:57.864Z,0
2019-05-02T02:02:54.039Z,0
2019-05-02T02:03:54.117Z,0
2019-05-02T02:04:56.806Z,0
2019-05-02T02:05:54.250Z,0
2019-05-02T02:06:54.271Z,0
2019-05-02T02:07:55.448Z,0
2019-05-02T02:08:54.369Z,0
2019-05-02T02:09:54.493Z,0
2019-05-02T02:10:56.034Z,0
2019-05-02T02:11:54.624Z,0
2019-05-02T02:13:03.155Z,0
2019-05-02T02:13:54.766Z,0
2019-05-02T02:14:55.494Z,0
2019-05-02T02:15:54.956Z,0
2019-05-02T02:16:55.016Z,0
2019-05-02T02:17:55.104Z,0
2019-05-02T02:18:58.912Z,0
2019-05-02T02:19:55.236Z,0
2019-05-02T02:20:55.344Z,0
2019-05-02T02:21:57.260Z,0
2019-05-02T02:22:55.462Z,0
2019-05-02T02:23:55.542Z,0
2019-05-02T02:24:55.854Z,0
2019-05-02T02:25:55.712Z,0
2019-05-02T02:26:55.775Z,0
2019-05-02T02:27:59.554Z,0
2019-05-02T02:28:55.871Z,0
2019-05-02T02:29:57.178Z,0
2019-05-02T02:30:57.614Z,0
2019-05-02T02:31:57.117Z,0
2019-05-02T02:33:00.351Z,0
2019-05-02T02:33:57.243Z,0
2019-05-02T02:34:56.356Z,0
2019-05-02T02:35:57.416Z,0
2019-05-02T02:36:56.496Z,0
2019-05-02T02:37:57.555Z,0
2019-05-02T02:38:56.606Z,0
2019-05-02T02:39:57.674Z,0
2019-05-02T02:40:56.741Z,0
2019-05-02T02:41:57.803Z,0
2019-05-02T02:42:56.871Z,0
2019-05-02T02:44:00.464Z,0
2019-05-02T02:44:56.963Z,0
2019-05-02T02:45:57.531Z,0
2019-05-02T02:46:57.103Z,0
2019-05-02T02:47:59.782Z,0
2019-05-02T02:48:57.197Z,0
2019-05-02T02:50:02.263Z,0
2019-05-02T02:50:58.264Z,0
2019-05-02T02:52:04.540Z,0
2019-05-02T02:52:58.424Z,0
2019-05-02T02:54:03.726Z,0
2019-05-02T02:54:58.506Z,0
2019-05-02T02:56:01.620Z,0
2019-05-02T02:56:57.628Z,0
2019-05-02T02:57:58.309Z,0
2019-05-02T02:58:58.740Z,0
2019-05-02T03:00:05.985Z,0
2019-05-02T03:00:57.872Z,0
2019-05-02T03:02:08.619Z,0
2019-05-02T03:02:58.158Z,0
2019-05-02T03:04:01.705Z,0
2019-05-02T03:04:58.101Z,0
2019-05-02T03:05:58.531Z,0
2019-05-02T03:06:58.297Z,0
2019-05-02T03:07:59.399Z,0
2019-05-02T03:08:58.386Z,0
2019-05-02T03:09:59.379Z,0
2019-05-02T03:10:59.124Z,0
2019-05-02T03:12:01.932Z,0
2019-05-02T03:12:58.742Z,0
2019-05-02T03:14:05.429Z,0
2019-05-02T03:14:58.855Z,0
2019-05-02T03:16:00.263Z,0
2019-05-02T03:16:58.989Z,0
2019-05-02T03:18:00.298Z,0
2019-05-02T03:18:59.106Z,0
2019-05-02T03:20:01.747Z,0
2019-05-02T03:20:59.211Z,0
2019-05-02T03:22:01.528Z,0
2019-05-02T03:22:59.348Z,0
2019-05-02T03:24:02.971Z,0
2019-05-02T03:24:59.503Z,0
2019-05-02T03:25:59.556Z,0
2019-05-02T03:26:59.640Z,0
2019-05-02T03:27:59.726Z,0
2019-05-02T03:29:00.706Z,0
2019-05-02T03:29:59.864Z,0
2019-05-02T03:30:59.936Z,0
2019-05-02T03:32:13.947Z,0
2019-05-02T03:33:09.393Z,0
2019-05-02T03:34:01.323Z,0
2019-05-02T03:35:00.186Z,0
2019-05-02T03:36:00.263Z,0
2019-05-02T03:37:03.051Z,0
2019-05-02T03:38:00.392Z,0
2019-05-02T03:39:00.466Z,0
2019-05-02T03:40:00.851Z,0
2019-05-02T03:41:00.584Z,0
2019-05-02T03:42:02.635Z,0
2019-05-02T03:43:00.746Z,0
2019-05-02T03:44:10.261Z,0
2019-05-02T03:45:04.577Z,0
2019-05-02T03:46:00.887Z,0
2019-05-02T03:47:02.464Z,0
2019-05-02T03:48:01.031Z,0
2019-05-02T03:49:06.964Z,0
2019-05-02T03:50:01.123Z,0
2019-05-02T03:51:04.764Z,0
2019-05-02T03:52:02.507Z,0
2019-05-02T03:53:01.299Z,0
2019-05-02T03:54:07.134Z,0
2019-05-02T03:55:01.413Z,0
2019-05-02T03:56:10.207Z,0
2019-05-02T03:57:01.522Z,0
2019-05-02T03:58:12.763Z,0
2019-05-02T03:59:01.787Z,0
2019-05-02T04:00:01.859Z,0
2019-05-02T04:01:03.835Z,0
2019-05-02T04:02:02.081Z,0
2019-05-02T04:03:02.629Z,0
2019-05-02T04:04:02.262Z,0
2019-05-02T04:05:02.905Z,0
2019-05-02T04:06:02.378Z,0
2019-05-02T04:07:03.401Z,0
2019-05-02T04:08:02.517Z,0
2019-05-02T04:09:02.550Z,0
2019-05-02T04:10:02.624Z,0
2019-05-02T04:11:02.811Z,0
2019-05-02T04:12:02.719Z,0
2019-05-02T04:13:02.793Z,0
2019-05-02T04:14:14.570Z,0
2019-05-02T04:15:02.943Z,0
2019-05-02T04:16:14.274Z,0
2019-05-02T04:17:03.081Z,5.625
2019-05-02T04:18:08.291Z,5.625
2019-05-02T04:19:03.419Z,5.625
2019-05-02T04:20:09.184Z,5.625
2019-05-02T04:21:03.467Z,5.625
2019-05-02T04:22:08.367Z,5.625
2019-05-02T04:23:03.640Z,5.625
2019-05-02T04:24:10.698Z,5.625
2019-05-02T04:25:06.297Z,5.625
2019-05-02T04:26:06.622Z,5.625
2019-05-02T04:27:04.004Z,5.625
2019-05-02T04:28:05.735Z,5.625
2019-05-02T04:29:04.191Z,5.625
2019-05-02T04:30:11.021Z,5.625
2019-05-02T04:31:04.374Z,5.625
2019-05-02T04:32:11.246Z,5.625
2019-05-02T04:33:04.562Z,5.625
2019-05-02T04:34:13.480Z,5.625
2019-05-02T04:35:04.789Z,5.625
2019-05-02T04:36:13.394Z,5.625
2019-05-02T04:37:04.948Z,5.625
2019-05-02T04:38:09.837Z,11.25
2019-05-02T04:39:05.606Z,11.25
2019-05-02T04:40:11.187Z,11.25
2019-05-02T04:41:05.366Z,11.25
2019-05-02T04:42:12.771Z,11.25
2019-05-02T04:43:08.028Z,11.25
2019-05-02T04:44:08.868Z,11.25
2019-05-02T04:45:17.257Z,11.25
2019-05-02T04:46:09.172Z,16.875
2019-05-02T04:47:16.517Z,11.25
2019-05-02T04:48:08.385Z,16.875
2019-05-02T04:49:08.922Z,16.875
2019-05-02T04:50:07.442Z,16.875
2019-05-02T04:51:14.138Z,16.875
2019-05-02T04:52:11.516Z,16.875
2019-05-02T04:53:08.554Z,16.875
2019-05-02T04:54:09.177Z,16.875
2019-05-02T04:55:19.639Z,16.875
2019-05-02T04:56:10.488Z,16.875
2019-05-02T04:57:08.398Z,22.5
2019-05-02T04:58:08.291Z,22.5
2019-05-02T04:59:17.364Z,22.5
2019-05-02T05:00:11.465Z,22.5
2019-05-02T05:01:09.867Z,22.5
2019-05-02T05:02:09.170Z,22.5
2019-05-02T05:03:15.350Z,16.875
2019-05-02T05:04:08.432Z,22.5
2019-05-02T05:05:08.161Z,28.125
2019-05-02T05:06:12.024Z,22.5
2019-05-02T05:07:09.251Z,28.125
2019-05-02T05:08:07.854Z,28.125
2019-05-02T05:09:10.216Z,22.5
2019-05-02T05:10:08.367Z,22.5
2019-05-02T05:11:07.901Z,22.5
2019-05-02T05:12:07.774Z,28.125
2019-05-02T05:13:07.839Z,22.5
2019-05-02T05:14:09.908Z,28.125
2019-05-02T05:15:07.993Z,28.125
2019-05-02T05:16:12.865Z,28.125
2019-05-02T05:17:09.041Z,28.125
2019-05-02T05:18:10.304Z,28.125
2019-05-02T05:19:08.199Z,28.125
2019-05-02T05:20:13.601Z,28.125
2019-05-02T05:21:10.605Z,33.75
2019-05-02T05:22:11.552Z,33.75
2019-05-02T05:23:08.411Z,33.75
2019-05-02T05:24:08.403Z,39.375
2019-05-02T05:25:12.157Z,39.375
2019-05-02T05:26:08.496Z,39.375
2019-05-02T05:27:13.093Z,39.375
2019-05-02T05:28:09.130Z,39.375
2019-05-02T05:29:09.006Z,39.375
2019-05-02T05:30:15.375Z,45
2019-05-02T05:31:08.953Z,50.625
2019-05-02T05:32:10.121Z,50.625
2019-05-02T05:33:10.213Z,50.625
2019-05-02T05:34:09.824Z,45
2019-05-02T05:35:12.742Z,50.625
2019-05-02T05:36:09.177Z,50.625
2019-05-02T05:37:13.182Z,45
2019-05-02T05:38:09.200Z,45
2019-05-02T05:39:11.625Z,50.625
2019-05-02T05:40:09.499Z,50.625
2019-05-02T05:41:12.890Z,50.625
2019-05-02T05:42:10.620Z,50.625
2019-05-02T05:43:14.223Z,50.625
2019-05-02T05:44:09.507Z,56.25
2019-05-02T05:45:13.593Z,56.25
2019-05-02T05:46:12.908Z,61.875
2019-05-02T05:47:11.978Z,61.875
2019-05-02T05:48:09.552Z,61.875
2019-05-02T05:49:10.398Z,61.875
2019-05-02T05:50:09.702Z,61.875
2019-05-02T05:51:11.751Z,56.25
2019-05-02T05:52:09.719Z,56.25
2019-05-02T05:53:12.317Z,61.875
2019-05-02T05:54:09.715Z,67.5
2019-05-02T05:55:12.668Z,73.125
2019-05-02T05:56:09.950Z,73.125
2019-05-02T05:57:12.075Z,73.125
2019-05-02T05:58:15.151Z,78.75
2019-05-02T05:59:10.098Z,78.75
2019-05-02T06:00:15.537Z,78.75
2019-05-02T06:01:10.391Z,78.75
2019-05-02T06:02:14.420Z,84.375
2019-05-02T06:03:13.789Z,84.375
2019-05-02T06:04:13.777Z,84.375
2019-05-02T06:05:10.734Z,90
2019-05-02T06:06:14.723Z,90
2019-05-02T06:07:10.791Z,84.375
2019-05-02T06:08:13.752Z,78.75
2019-05-02T06:09:13.600Z,78.75
2019-05-02T06:10:10.770Z,73.125
2019-05-02T06:11:14.788Z,73.125
2019-05-02T06:12:10.956Z,67.5
2019-05-02T06:13:12.625Z,78.75
2019-05-02T06:14:10.817Z,84.375
2019-05-02T06:15:11.115Z,78.75
2019-05-02T06:16:14.928Z,78.75
2019-05-02T06:17:11.153Z,90
2019-05-02T06:18:11.162Z,90
2019-05-02T06:19:12.914Z,90
2019-05-02T06:20:11.363Z,90
2019-05-02T06:21:11.365Z,90
2019-05-02T06:22:11.414Z,95.625
2019-05-02T06:23:11.400Z,84.375
2019-05-02T06:24:15.631Z,73.125
2019-05-02T06:25:11.647Z,73.125
2019-05-02T06:26:13.393Z,78.75
2019-05-02T06:27:11.830Z,67.5
2019-05-02T06:28:11.856Z,73.125
2019-05-02T06:29:12.938Z,78.75
2019-05-02T06:30:12.018Z,84.375
2019-05-02T06:31:12.068Z,84.375
2019-05-02T06:32:13.973Z,78.75
2019-05-02T06:33:12.064Z,73.125
2019-05-02T06:34:12.091Z,78.75
2019-05-02T06:35:12.090Z,84.375
2019-05-02T06:36:12.115Z,90
2019-05-02T06:37:13.398Z,95.625
2019-05-02T06:38:12.174Z,84.375
2019-05-02T06:39:12.191Z,90
2019-05-02T06:40:12.196Z,95.625
2019-05-02T06:41:16.035Z,84.375
2019-05-02T06:42:12.411Z,90
2019-05-02T06:43:12.244Z,101.25
2019-05-02T06:44:12.247Z,112.5
2019-05-02T06:45:12.279Z,95.625
2019-05-02T06:46:16.185Z,95.625
2019-05-02T06:47:12.467Z,95.625
2019-05-02T06:48:16.747Z,95.625
2019-05-02T06:49:12.497Z,123.75
2019-05-02T06:50:12.509Z,129.375
2019-05-02T06:51:19.460Z,101.25
2019-05-02T06:52:12.683Z,95.625
2019-05-02T06:53:12.686Z,106.875
2019-05-02T06:54:12.732Z,112.5
2019-05-02T06:55:12.741Z,123.75
2019-05-02T06:56:14.023Z,106.875
2019-05-02T06:57:12.786Z,118.125
2019-05-02T06:58:12.804Z,140.625
2019-05-02T06:59:12.997Z,123.75
2019-05-02T07:00:12.983Z,118.125
2019-05-02T07:01:16.104Z,112.5
2019-05-02T07:02:13.157Z,118.125
2019-05-02T07:03:13.212Z,129.375
2019-05-02T07:04:17.263Z,140.625
2019-05-02T07:05:13.237Z,118.125
2019-05-02T07:06:13.315Z,101.25
2019-05-02T07:07:13.449Z,95.625
2019-05-02T07:08:14.065Z,95.625
2019-05-02T07:09:13.642Z,118.125
2019-05-02T07:10:13.408Z,123.75
2019-05-02T07:11:14.418Z,106.875
2019-05-02T07:12:14.661Z,101.25
2019-05-02T07:13:14.966Z,112.5
2019-05-02T07:14:14.027Z,106.875
2019-05-02T07:15:13.682Z,112.5
2019-05-02T07:16:15.554Z,135
2019-05-02T07:17:13.838Z,146.25
2019-05-02T07:18:13.891Z,140.625
2019-05-02T07:19:16.301Z,140.625
2019-05-02T07:20:13.942Z,146.25
2019-05-02T07:21:17.293Z,140.625
2019-05-02T07:22:13.957Z,129.375
2019-05-02T07:23:16.014Z,135
2019-05-02T07:24:14.052Z,123.75
2019-05-02T07:25:14.079Z,135
2019-05-02T07:26:15.312Z,135
2019-05-02T07:27:14.388Z,140.625
2019-05-02T07:28:14.424Z,140.625
2019-05-02T07:29:16.963Z,135
2019-05-02T07:30:14.451Z,135
2019-05-02T07:31:14.442Z,146.25
2019-05-02T07:32:14.468Z,157.5
2019-05-02T07:33:14.480Z,180
2019-05-02T07:34:14.550Z,174.375
2019-05-02T07:35:15.922Z,163.125
2019-05-02T07:36:14.565Z,168.75
2019-05-02T07:37:14.561Z,163.125
2019-05-02T07:38:14.611Z,180
2019-05-02T07:39:14.787Z,185.625
2019-05-02T07:40:16.749Z,180
2019-05-02T07:41:14.798Z,202.5
2019-05-02T07:42:14.824Z,202.5
2019-05-02T07:43:20.913Z,191.25
2019-05-02T07:44:14.927Z,185.625
2019-05-02T07:45:14.999Z,174.375
2019-05-02T07:46:16.098Z,157.5
2019-05-02T07:47:15.058Z,157.5
2019-05-02T07:48:17.672Z,180
2019-05-02T07:49:15.267Z,191.25
2019-05-02T07:50:15.347Z,202.5
2019-05-02T07:51:17.162Z,157.5
2019-05-02T07:52:15.462Z,135
2019-05-02T07:53:15.492Z,135
2019-05-02T07:54:19.215Z,135
2019-05-02T07:55:15.656Z,157.5
2019-05-02T07:56:17.521Z,174.375
2019-05-02T07:57:15.739Z,157.5
2019-05-02T07:58:16.758Z,174.375
2019-05-02T07:59:18.576Z,185.625
2019-05-02T08:00:16.817Z,191.25
2019-05-02T08:01:15.848Z,219.375
2019-05-02T08:02:20.154Z,219.375
2019-05-02T08:03:16.994Z,225
2019-05-02T08:04:15.863Z,253.125
2019-05-02T08:05:21.461Z,281.25
2019-05-02T08:06:17.071Z,253.125
2019-05-02T08:07:20.652Z,253.125
2019-05-02T08:08:17.161Z,247.5
2019-05-02T08:09:16.250Z,253.125
2019-05-02T08:10:21.691Z,275.625
2019-05-02T08:11:16.476Z,264.375
2019-05-02T08:12:16.606Z,275.625
2019-05-02T08:13:17.408Z,281.25
2019-05-02T08:14:16.901Z,281.25
2019-05-02T08:15:16.894Z,247.5
2019-05-02T08:16:17.020Z,253.125
2019-05-02T08:17:19.191Z,258.75
2019-05-02T08:18:17.111Z,264.375
2019-05-02T08:19:17.224Z,275.625
2019-05-02T08:20:18.980Z,292.5
2019-05-02T08:21:17.487Z,298.125
2019-05-02T08:22:17.588Z,258.75
2019-05-02T08:23:20.356Z,275.625
2019-05-02T08:24:17.692Z,270
2019-05-02T08:25:17.756Z,309.375
2019-05-02T08:26:21.548Z,326.25
2019-05-02T08:27:17.947Z,360
2019-05-02T08:28:18.021Z,348.75
2019-05-02T08:29:17.984Z,315
2019-05-02T08:30:18.065Z,326.25
2019-05-02T08:31:18.841Z,309.375
2019-05-02T08:32:18.201Z,275.625
2019-05-02T08:33:18.263Z,292.5
2019-05-02T08:34:18.345Z,326.25
2019-05-02T08:35:18.520Z,337.5
2019-05-02T08:36:18.520Z,343.125
2019-05-02T08:37:18.575Z,320.625
2019-05-02T08:38:19.005Z,298.125
2019-05-02T08:39:18.769Z,286.875
2019-05-02T08:40:18.848Z,286.875
2019-05-02T08:41:20.246Z,326.25
2019-05-02T08:42:19.006Z,376.875
2019-05-02T08:43:19.002Z,331.875
2019-05-02T08:44:18.966Z,331.875
2019-05-02T08:45:19.120Z,331.875
2019-05-02T08:46:19.196Z,298.125
2019-05-02T08:47:19.478Z,365.625
2019-05-02T08:48:19.309Z,376.875
2019-05-02T08:49:20.091Z,376.875
2019-05-02T08:50:19.490Z,405
2019-05-02T08:51:19.674Z,438.75
2019-05-02T08:52:19.681Z,421.875
2019-05-02T08:53:20.368Z,444.375
2019-05-02T08:54:19.740Z,461.25
2019-05-02T08:55:19.930Z,489.375
2019-05-02T08:56:21.252Z,478.125
2019-05-02T08:57:19.926Z,427.5
2019-05-02T08:58:20.098Z,354.375
2019-05-02T08:59:24.365Z,337.5
2019-05-02T09:00:20.407Z,382.5
2019-05-02T09:01:20.433Z,371.25
2019-05-02T09:02:21.017Z,376.875
2019-05-02T09:03:20.449Z,399.375
2019-05-02T09:04:24.061Z,382.5
2019-05-02T09:05:20.719Z,388.125
2019-05-02T09:06:22.322Z,393.75
2019-05-02T09:07:20.986Z,382.5
2019-05-02T09:08:20.813Z,416.25
2019-05-02T09:09:22.680Z,433.125
2019-05-02T09:10:20.968Z,444.375
2019-05-02T09:11:21.036Z,405
2019-05-02T09:12:22.794Z,376.875
2019-05-02T09:13:24.074Z,455.625
2019-05-02T09:14:21.682Z,360
2019-05-02T09:15:22.289Z,337.5
2019-05-02T09:16:28.315Z,326.25
2019-05-02T09:17:32.839Z,320.625
2019-05-02T09:18:21.915Z,320.625
2019-05-02T09:19:26.342Z,354.375
2019-05-02T09:20:23.614Z,331.875
2019-05-02T09:21:21.999Z,348.75
2019-05-02T09:22:22.136Z,348.75
2019-05-02T09:23:22.773Z,393.75
2019-05-02T09:24:23.844Z,393.75
2019-05-02T09:25:22.085Z,405
2019-05-02T09:26:33.024Z,416.25
2019-05-02T09:27:22.498Z,433.125
2019-05-02T09:28:25.302Z,433.125
2019-05-02T09:29:22.315Z,421.875
2019-05-02T09:30:25.414Z,433.125
2019-05-02T09:31:22.602Z,466.875
2019-05-02T09:32:25.398Z,472.5
2019-05-02T09:33:22.609Z,483.75
2019-05-02T09:34:26.246Z,416.25
2019-05-02T09:35:23.032Z,421.875
2019-05-02T09:36:22.635Z,331.875
2019-05-02T09:37:23.298Z,388.125
2019-05-02T09:38:22.326Z,405
2019-05-02T09:39:22.650Z,405
2019-05-02T09:40:22.586Z,376.875
2019-05-02T09:41:26.778Z,399.375
2019-05-02T09:42:22.768Z,427.5
2019-05-02T09:43:22.955Z,450
2019-05-02T09:44:22.831Z,427.5
2019-05-02T09:45:22.962Z,410.625
2019-05-02T09:46:22.832Z,405
2019-05-02T09:47:27.203Z,427.5
2019-05-02T09:48:26.733Z,433.125
2019-05-02T09:49:22.951Z,410.625
2019-05-02T09:50:29.333Z,388.125
2019-05-02T09:51:23.144Z,382.5
2019-05-02T09:52:23.206Z,376.875
2019-05-02T09:53:25.417Z,393.75
2019-05-02T09:54:23.370Z,438.75
2019-05-02T09:55:23.376Z,438.75
2019-05-02T09:56:23.400Z,427.5
2019-05-02T09:57:23.393Z,506.25
2019-05-02T09:58:23.948Z,461.25
2019-05-02T09:59:29.418Z,427.5
2019-05-02T10:00:26.647Z,466.875
2019-05-02T10:01:23.658Z,360
2019-05-02T10:02:25.226Z,410.625
2019-05-02T10:03:23.806Z,450
2019-05-02T10:04:23.858Z,489.375
2019-05-02T10:05:23.874Z,506.25
2019-05-02T10:06:23.970Z,466.875
2019-05-02T10:07:23.930Z,500.625
2019-05-02T10:08:24.081Z,506.25
2019-05-02T10:09:27.164Z,528.75
2019-05-02T10:10:24.260Z,534.375
2019-05-02T10:11:26.260Z,540
2019-05-02T10:12:24.398Z,438.75
2019-05-02T10:13:25.558Z,371.25
2019-05-02T10:14:24.660Z,348.75
2019-05-02T10:15:25.759Z,523.125
2019-05-02T10:16:27.258Z,528.75
2019-05-02T10:17:25.063Z,410.625
2019-05-02T10:18:29.989Z,315
2019-05-02T10:19:26.249Z,517.5
2019-05-02T10:20:31.704Z,585
2019-05-02T10:21:26.424Z,613.125
2019-05-02T10:22:28.036Z,736.875
2019-05-02T10:23:26.560Z,343.125
2019-05-02T10:24:25.551Z,444.375
2019-05-02T10:25:25.600Z,838.125
2019-05-02T10:26:26.732Z,478.125
2019-05-02T10:27:25.771Z,714.375
2019-05-02T10:28:25.823Z,832.5
2019-05-02T10:29:28.207Z,433.125
2019-05-02T10:30:25.915Z,399.375
2019-05-02T10:31:27.457Z,472.5
2019-05-02T10:32:26.027Z,348.75
2019-05-02T10:33:27.850Z,354.375
2019-05-02T10:34:27.209Z,360
2019-05-02T10:35:27.571Z,1361.25
2019-05-02T10:36:27.373Z,1552.5
2019-05-02T10:37:30.484Z,1507.5
2019-05-02T10:38:26.602Z,1462.5
2019-05-02T10:39:28.334Z,1440
2019-05-02T10:40:26.773Z,1411.875
2019-05-02T10:41:26.716Z,1389.375
2019-05-02T10:42:26.847Z,1288.125
2019-05-02T10:43:26.975Z,1248.75
2019-05-02T10:44:31.464Z,646.875
2019-05-02T10:45:27.150Z,939.375
2019-05-02T10:46:27.707Z,489.375
2019-05-02T10:47:27.182Z,506.25
2019-05-02T10:48:28.581Z,804.375
2019-05-02T10:49:27.234Z,939.375
2019-05-02T10:50:27.289Z,540
2019-05-02T10:51:27.357Z,1653.75
2019-05-02T10:52:29.410Z,1715.625
2019-05-02T10:53:27.630Z,1873.125
2019-05-02T10:54:32.712Z,956.25
2019-05-02T10:55:27.953Z,1845
2019-05-02T10:56:27.947Z,1800
2019-05-02T10:57:28.162Z,1822.5
2019-05-02T10:58:31.816Z,1794.375
2019-05-02T10:59:28.194Z,1681.875
2019-05-02T11:00:28.204Z,1181.25
2019-05-02T11:01:28.292Z,1586.25
2019-05-02T11:02:28.428Z,1383.75
2019-05-02T11:03:28.561Z,466.875
2019-05-02T11:04:29.325Z,607.5
2019-05-02T11:05:28.612Z,1704.375
2019-05-02T11:06:28.695Z,680.625
2019-05-02T11:07:28.786Z,1698.75
2019-05-02T11:08:28.847Z,495
2019-05-02T11:09:28.826Z,860.625
2019-05-02T11:10:28.958Z,601.875
2019-05-02T11:11:29.021Z,371.25
2019-05-02T11:12:40.249Z,348.75
2019-05-02T11:13:29.121Z,365.625
2019-05-02T11:14:29.214Z,315
2019-05-02T11:15:29.293Z,399.375
2019-05-02T11:16:29.342Z,1209.375
2019-05-02T11:17:29.434Z,596.25
2019-05-02T11:18:40.094Z,495
2019-05-02T11:19:31.645Z,1665
2019-05-02T11:20:31.682Z,1766.25
2019-05-02T11:21:31.999Z,1625.625
2019-05-02T11:22:31.948Z,1631.25
2019-05-02T11:23:30.198Z,1603.125
2019-05-02T11:24:31.598Z,1535.625
2019-05-02T11:25:31.895Z,489.375
2019-05-02T11:26:32.373Z,416.25
2019-05-02T11:27:32.666Z,405
2019-05-02T11:28:32.344Z,365.625
2019-05-02T11:29:32.191Z,433.125
2019-05-02T11:30:31.950Z,399.375
2019-05-02T11:31:32.417Z,956.25
2019-05-02T11:32:32.656Z,669.375
2019-05-02T11:33:32.519Z,1648.125
2019-05-02T11:34:32.639Z,1676.25
2019-05-02T11:35:31.787Z,1614.375
2019-05-02T11:36:32.768Z,1653.75
2019-05-02T11:37:32.808Z,1681.875
2019-05-02T11:38:31.821Z,1130.625
2019-05-02T11:39:36.793Z,540
2019-05-02T11:40:32.197Z,1794.375
2019-05-02T11:41:31.898Z,1676.25
2019-05-02T11:42:32.319Z,1743.75
2019-05-02T11:43:32.587Z,1648.125
2019-05-02T11:44:32.700Z,545.625
2019-05-02T11:45:32.425Z,348.75
2019-05-02T11:46:32.993Z,360
2019-05-02T11:47:32.803Z,343.125
2019-05-02T11:48:32.265Z,427.5
2019-05-02T11:49:32.268Z,562.5
2019-05-02T11:50:35.368Z,1350
2019-05-02T11:51:32.844Z,573.75
2019-05-02T11:52:37.156Z,348.75
2019-05-02T11:53:32.726Z,320.625
2019-05-02T11:54:32.847Z,455.625
2019-05-02T11:55:32.947Z,590.625
2019-05-02T11:56:33.165Z,810
2019-05-02T11:57:33.279Z,416.25
2019-05-02T11:58:33.258Z,376.875
2019-05-02T11:59:33.397Z,405
2019-05-02T12:00:33.632Z,354.375
2019-05-02T12:01:36.950Z,264.375
2019-05-02T12:02:33.659Z,213.75
2019-05-02T12:03:36.814Z,185.625
2019-05-02T12:04:33.830Z,174.375
2019-05-02T12:05:35.761Z,163.125
2019-05-02T12:06:33.907Z,174.375
2019-05-02T12:07:33.940Z,191.25
2019-05-02T12:08:34.029Z,225
2019-05-02T12:09:34.004Z,331.875
2019-05-02T12:10:36.609Z,630
2019-05-02T12:11:34.197Z,1530
2019-05-02T12:12:36.242Z,309.375
2019-05-02T12:13:34.331Z,444.375
2019-05-02T12:14:36.426Z,686.25
2019-05-02T12:15:34.440Z,202.5
2019-05-02T12:16:35.488Z,135
2019-05-02T12:17:35.511Z,101.25
2019-05-02T12:18:34.599Z,78.75
2019-05-02T12:19:35.660Z,73.125
2019-05-02T12:20:36.677Z,78.75
2019-05-02T12:21:35.787Z,95.625
2019-05-02T12:22:34.786Z,123.75
2019-05-02T12:23:36.291Z,202.5
2019-05-02T12:24:36.279Z,1102.5
2019-05-02T12:25:35.954Z,1355.625
2019-05-02T12:26:35.025Z,1580.625
2019-05-02T12:27:35.093Z,1591.875
2019-05-02T12:28:36.195Z,1496.25
2019-05-02T12:29:35.342Z,1620
2019-05-02T12:30:37.619Z,1603.125
2019-05-02T12:31:35.645Z,1552.5
2019-05-02T12:32:35.774Z,1524.375
2019-05-02T12:33:35.912Z,1625.625
2019-05-02T12:34:36.039Z,1580.625
2019-05-02T12:35:36.082Z,528.75
2019-05-02T12:36:37.150Z,652.5
2019-05-02T12:37:36.278Z,1170
2019-05-02T12:38:36.297Z,315
2019-05-02T12:39:36.430Z,253.125
2019-05-02T12:40:36.436Z,253.125
2019-05-02T12:41:36.454Z,365.625
2019-05-02T12:42:36.460Z,348.75
2019-05-02T12:43:36.498Z,331.875
2019-05-02T12:44:36.620Z,382.5
2019-05-02T12:45:36.730Z,523.125
2019-05-02T12:46:36.879Z,489.375
2019-05-02T12:47:37.066Z,725.625
2019-05-02T12:48:37.171Z,663.75
2019-05-02T12:49:37.274Z,1383.75
2019-05-02T12:50:37.239Z,1552.5
2019-05-02T12:51:37.355Z,894.375
2019-05-02T12:52:37.396Z,618.75
2019-05-02T12:53:37.362Z,1417.5
2019-05-02T12:54:37.441Z,1338.75
2019-05-02T12:55:37.534Z,1423.125
2019-05-02T12:56:37.661Z,1378.125
2019-05-02T12:57:37.809Z,1501.875
2019-05-02T12:58:37.918Z,1411.875
2019-05-02T12:59:38.021Z,961.875
2019-05-02T13:00:38.146Z,1147.5
2019-05-02T13:01:38.170Z,1372.5
2019-05-02T13:02:38.330Z,1451.25
2019-05-02T13:03:38.314Z,534.375
2019-05-02T13:04:38.290Z,511.875
2019-05-02T13:05:38.402Z,309.375
2019-05-02T13:06:39.447Z,225
2019-05-02T13:07:42.681Z,208.125
2019-05-02T13:08:38.502Z,168.75
2019-05-02T13:09:38.511Z,157.5
2019-05-02T13:10:38.535Z,157.5
2019-05-02T13:11:42.048Z,180
2019-05-02T13:12:38.709Z,230.625